createdAt,value
2019-03-22T00:01:44.848Z,27.20
2019-03-22T00:04:14.269Z,25.17
2019-03-22T00:06:44.684Z,26.93
2019-03-22T00:09:14.101Z,27.90
2019-03-22T00:11:43.849Z,27.87
2019-03-22T00:14:13.272Z,27.60
2019-03-22T00:16:42.688Z,26.87
2019-03-22T00:19:12.120Z,27.10
2019-03-22T00:21:42.672Z,27.73
2019-03-22T00:24:12.106Z,27.33
2019-03-22T00:26:41.516Z,27.63
2019-03-22T00:29:10.957Z,29.60
2019-03-22T00:31:40.452Z,29.73
2019-03-22T00:34:09.884Z,28.57
2019-03-22T00:36:39.320Z,29.23
2019-03-22T00:39:08.768Z,28.53
2019-03-22T00:41:38.192Z,29.87
2019-03-22T00:44:07.640Z,27.90
2019-03-22T00:46:37.057Z,29.43
2019-03-22T00:49:06.801Z,27.77
2019-03-22T00:51:36.224Z,28.17
2019-03-22T00:54:05.668Z,28.60
2019-03-22T00:56:35.098Z,28.43
2019-03-22T00:59:04.533Z,28.37
2019-03-22T01:01:33.969Z,28.10
2019-03-22T01:04:03.389Z,29.33
2019-03-22T01:06:33.873Z,29.23
2019-03-22T01:09:03.547Z,29.80
2019-03-22T01:11:33.441Z,32.90
2019-03-22T01:14:02.853Z,30.10
2019-03-22T01:16:32.285Z,30.40
2019-03-22T01:19:01.693Z,30.33
2019-03-22T01:21:31.116Z,31.87
2019-03-22T01:24:00.529Z,32.07
2019-03-22T01:26:29.957Z,30.27
2019-03-22T01:28:59.384Z,31.47
2019-03-22T01:31:28.836Z,32.63
2019-03-22T01:33:58.263Z,33.53
2019-03-22T01:36:28.036Z,35.07
2019-03-22T01:38:57.449Z,35.07
2019-03-22T01:41:26.872Z,35.60
2019-03-22T01:43:56.285Z,33.93
2019-03-22T01:46:25.728Z,36.13
2019-03-22T01:48:56.110Z,35.57
2019-03-22T01:51:25.554Z,33.93
2019-03-22T01:53:54.968Z,34.80
2019-03-22T01:56:24.497Z,33.20
2019-03-22T01:58:53.916Z,29.50
2019-03-22T02:01:23.521Z,31.43
2019-03-22T02:03:53.012Z,31.97
2019-03-22T02:06:22.449Z,31.50
2019-03-22T02:08:51.898Z,32.13
2019-03-22T02:11:21.336Z,31.77
2019-03-22T02:13:50.779Z,31.20
2019-03-22T02:16:20.224Z,31.63
2019-03-22T02:18:49.653Z,30.33
2019-03-22T02:21:19.082Z,32.07
2019-03-22T02:23:48.826Z,31.97
2019-03-22T02:26:18.248Z,30.57
2019-03-22T02:28:47.678Z,31.97
2019-03-22T02:31:17.101Z,31.47
2019-03-22T02:33:46.531Z,31.20
2019-03-22T02:36:16.204Z,32.13
2019-03-22T02:38:45.645Z,33.10
2019-03-22T02:41:15.444Z,33.50
2019-03-22T02:43:44.890Z,33.63
2019-03-22T02:46:14.367Z,32.63
2019-03-22T02:48:44.149Z,32.07
2019-03-22T02:51:13.587Z,32.47
2019-03-22T02:53:43.144Z,32.37
2019-03-22T02:56:12.724Z,33.80
2019-03-22T02:58:42.392Z,32.50
2019-03-22T03:04:23.527Z,31.67
2019-03-22T03:06:52.944Z,33.23
2019-03-22T03:09:22.753Z,34.50
2019-03-22T03:11:52.162Z,32.90
2019-03-22T03:14:21.591Z,33.70
2019-03-22T03:16:51.577Z,31.67
2019-03-22T03:19:21.037Z,32.37
2019-03-22T03:21:50.537Z,31.67
2019-03-22T03:24:19.948Z,33.20
2019-03-22T03:26:49.372Z,33.33
2019-03-22T03:29:19.884Z,31.60
2019-03-22T03:31:49.303Z,33.60
2019-03-22T03:34:18.757Z,34.60
2019-03-22T03:36:48.227Z,31.33
2019-03-22T03:39:17.638Z,29.47
2019-03-22T03:41:47.047Z,30.97
2019-03-22T03:44:16.464Z,31.60
2019-03-22T03:46:45.944Z,31.70
2019-03-22T03:49:15.352Z,31.97
2019-03-22T03:51:44.799Z,30.80
2019-03-22T03:54:14.218Z,31.50
2019-03-22T03:56:43.640Z,33.67
2019-03-22T03:59:13.072Z,31.00
2019-03-22T04:01:42.490Z,30.97
2019-03-22T04:04:12.209Z,33.87
2019-03-22T04:06:41.620Z,31.00
2019-03-22T04:09:11.076Z,31.43
2019-03-22T04:11:40.477Z,30.80
2019-03-22T04:14:09.904Z,32.73
2019-03-22T04:16:39.348Z,32.43
2019-03-22T04:19:09.063Z,30.80
2019-03-22T04:21:38.582Z,30.80
2019-03-22T04:24:08.139Z,33.80
2019-03-22T04:26:37.576Z,33.50
2019-03-22T04:29:08.373Z,34.10
2019-03-22T04:31:38.068Z,32.47
2019-03-22T04:34:07.479Z,32.97
2019-03-22T04:36:36.910Z,32.53
2019-03-22T04:39:07.055Z,32.07
2019-03-22T04:41:36.512Z,33.13
2019-03-22T04:44:05.918Z,31.40
2019-03-22T04:46:36.218Z,32.40
2019-03-22T04:49:05.695Z,30.47
2019-03-22T04:51:35.289Z,35.70
2019-03-22T04:54:05.300Z,35.63
2019-03-22T04:56:36.409Z,36.30
2019-03-22T04:59:18.501Z,36.50
2019-03-22T05:01:39.228Z,36.40
2019-03-22T05:04:09.041Z,38.20
2019-03-22T05:06:39.539Z,37.33
2019-03-22T05:09:10.587Z,40.30
2019-03-22T05:11:43.776Z,40.53
2019-03-22T05:14:13.892Z,38.77
2019-03-22T05:16:45.840Z,40.70
2019-03-22T05:19:16.167Z,39.90
2019-03-22T05:21:46.443Z,39.67
2019-03-22T05:24:18.188Z,40.70
2019-03-22T05:26:47.547Z,40.70
2019-03-22T05:29:17.259Z,41.80
2019-03-22T05:32:08.555Z,38.30
2019-03-22T05:34:37.971Z,36.70
2019-03-22T05:37:07.395Z,40.63
2019-03-22T05:39:36.787Z,37.43
2019-03-22T05:42:06.188Z,40.63
2019-03-22T05:44:35.635Z,39.17
2019-03-22T05:47:05.158Z,40.23
2019-03-22T05:49:34.601Z,39.80
2019-03-22T05:52:04.184Z,41.83
2019-03-22T05:54:33.603Z,38.30
2019-03-22T05:57:12.731Z,40.00
2019-03-22T05:59:42.330Z,41.70
2019-03-22T06:02:05.234Z,39.47
2019-03-22T06:04:34.655Z,41.30
2019-03-22T06:07:04.144Z,41.17
2019-03-22T06:09:33.575Z,30.97
2019-03-22T06:12:02.971Z,37.97
2019-03-22T06:14:32.404Z,37.63
2019-03-22T06:17:01.794Z,40.17
2019-03-22T06:19:31.377Z,37.73
2019-03-22T06:22:00.798Z,37.80
2019-03-22T06:24:30.235Z,37.90
2019-03-22T06:26:59.664Z,39.20
2019-03-22T06:29:29.101Z,38.50
2019-03-22T06:31:58.536Z,41.87
2019-03-22T06:34:28.071Z,39.20
2019-03-22T06:36:57.482Z,38.10
2019-03-22T06:39:27.175Z,37.33
2019-03-22T06:42:03.234Z,38.07
2019-03-22T06:44:32.823Z,39.23
2019-03-22T06:47:02.241Z,40.80
2019-03-22T06:49:31.681Z,38.47
2019-03-22T06:52:01.102Z,40.80
2019-03-22T06:54:31.858Z,40.23
2019-03-22T06:57:02.001Z,40.07
2019-03-22T06:59:31.408Z,40.17
2019-03-22T07:02:00.863Z,38.83
2019-03-22T07:04:30.347Z,37.83
2019-03-22T07:06:59.787Z,41.60
2019-03-22T07:09:29.197Z,41.10
2019-03-22T07:11:58.613Z,41.23
2019-03-22T07:14:28.029Z,40.23
2019-03-22T07:16:59.016Z,39.47
2019-03-22T07:19:28.551Z,38.30
2019-03-22T07:21:58.023Z,39.17
2019-03-22T07:24:27.463Z,41.30
2019-03-22T07:26:57.055Z,40.03
2019-03-22T07:29:26.464Z,38.97
2019-03-22T07:31:55.941Z,40.90
2019-03-22T07:34:25.355Z,38.70
2019-03-22T07:36:54.800Z,39.40
2019-03-22T07:39:24.209Z,39.03
2019-03-22T07:41:53.727Z,42.10
2019-03-22T07:44:23.114Z,47.10
2019-03-22T07:46:52.531Z,45.77
2019-03-22T07:49:21.935Z,43.60
2019-03-22T07:51:51.363Z,43.50
2019-03-22T07:54:20.791Z,45.67
2019-03-22T07:56:50.249Z,43.63
2019-03-22T07:59:19.699Z,45.27
2019-03-22T08:01:50.184Z,43.33
2019-03-22T08:04:19.595Z,45.27
2019-03-22T08:06:49.072Z,42.03
2019-03-22T08:09:18.486Z,44.70
2019-03-22T08:11:47.899Z,42.80
2019-03-22T08:14:17.360Z,44.43
2019-03-22T08:16:46.856Z,43.17
2019-03-22T08:19:16.345Z,45.20
2019-03-22T08:21:46.711Z,43.73
2019-03-22T08:24:16.238Z,42.87
2019-03-22T08:26:45.648Z,41.80
2019-03-22T08:29:15.115Z,40.30
2019-03-22T08:31:44.554Z,40.30
2019-03-22T08:34:14.047Z,41.77
2019-03-22T08:36:43.442Z,41.13
2019-03-22T08:39:13.294Z,41.77
2019-03-22T08:41:42.768Z,40.50
2019-03-22T08:44:12.243Z,39.27
2019-03-22T08:46:41.667Z,38.43
2019-03-22T08:49:11.189Z,39.80
2019-03-22T08:51:40.734Z,38.30
2019-03-22T08:54:10.127Z,39.10
2019-03-22T08:56:39.591Z,37.40
2019-03-22T08:59:09.118Z,36.97
2019-03-22T09:01:38.644Z,36.40
2019-03-22T09:04:08.083Z,37.53
2019-03-22T09:06:37.832Z,35.07
2019-03-22T09:09:07.843Z,35.00
2019-03-22T09:11:37.376Z,34.30
2019-03-22T09:14:06.768Z,36.37
2019-03-22T09:16:36.207Z,33.77
2019-03-22T09:19:05.671Z,33.70
2019-03-22T09:21:35.096Z,34.13
2019-03-22T09:24:04.605Z,34.20
2019-03-22T09:26:46.876Z,32.57
2019-03-22T09:29:05.232Z,31.30
2019-03-22T09:31:34.704Z,31.63
2019-03-22T09:34:04.196Z,30.37
2019-03-22T09:36:33.663Z,34.00
2019-03-22T09:39:03.300Z,31.80
2019-03-22T09:41:32.756Z,33.80
2019-03-22T09:44:02.313Z,32.03
2019-03-22T09:46:31.802Z,31.27
2019-03-22T09:49:01.223Z,32.53
2019-03-22T09:51:30.978Z,33.63
2019-03-22T09:54:00.471Z,32.10
2019-03-22T09:56:29.910Z,32.87
2019-03-22T09:58:59.383Z,32.73
2019-03-22T10:01:28.826Z,32.77
2019-03-22T10:03:58.319Z,33.63
2019-03-22T10:06:27.703Z,35.47
2019-03-22T10:08:57.149Z,34.17
2019-03-22T10:11:26.571Z,37.50
2019-03-22T10:13:56.016Z,34.80
2019-03-22T10:16:25.451Z,38.03
2019-03-22T10:18:54.944Z,37.97
2019-03-22T10:21:24.466Z,37.90
2019-03-22T10:23:53.981Z,37.03
2019-03-22T10:26:23.837Z,38.00
2019-03-22T10:28:53.352Z,39.43
2019-03-22T10:31:36.216Z,35.80
2019-03-22T10:33:54.033Z,38.77
2019-03-22T10:36:23.469Z,40.73
2019-03-22T10:38:53.128Z,38.90
2019-03-22T10:41:23.765Z,40.27
2019-03-22T10:43:53.374Z,39.50
2019-03-22T10:46:22.833Z,37.80
2019-03-22T10:48:52.359Z,38.30
2019-03-22T10:51:22.159Z,39.90
2019-03-22T10:53:51.713Z,39.30
2019-03-22T10:56:21.191Z,40.80
2019-03-22T10:58:50.695Z,41.83
2019-03-22T11:01:20.112Z,40.73
2019-03-22T11:03:49.680Z,39.87
2019-03-22T11:06:25.993Z,39.40
2019-03-22T11:08:50.475Z,42.17
2019-03-22T11:11:19.959Z,41.00
2019-03-22T11:13:49.408Z,45.20
2019-03-22T11:16:18.885Z,42.03
2019-03-22T11:18:48.315Z,42.10
2019-03-22T11:21:17.740Z,44.40
2019-03-22T11:23:47.162Z,42.00
2019-03-22T11:26:16.595Z,41.67
2019-03-22T11:28:46.022Z,39.70
2019-03-22T11:31:15.493Z,39.00
2019-03-22T11:33:45.012Z,41.40
2019-03-22T11:36:14.462Z,43.60
2019-03-22T11:38:43.916Z,42.47
2019-03-22T11:41:13.325Z,39.87
2019-03-22T11:43:42.742Z,40.40
2019-03-22T11:46:12.522Z,39.93
2019-03-22T11:48:41.920Z,39.00
2019-03-22T11:51:11.424Z,44.87
2019-03-22T11:53:40.908Z,40.67
2019-03-22T11:56:10.355Z,41.40
2019-03-22T11:58:39.830Z,42.73
2019-03-22T12:01:19.130Z,40.80
2019-03-22T12:03:40.502Z,42.83
2019-03-22T12:06:09.995Z,44.63
2019-03-22T12:08:39.409Z,43.53
2019-03-22T12:11:08.828Z,44.70
2019-03-22T12:13:38.289Z,44.67
2019-03-22T12:16:07.730Z,44.20
2019-03-22T12:18:37.168Z,45.33
2019-03-22T12:21:06.609Z,43.20
2019-03-22T12:23:36.042Z,43.60
2019-03-22T12:26:06.487Z,43.10
2019-03-22T12:28:36.132Z,42.30
2019-03-22T12:31:05.647Z,42.50
2019-03-22T12:33:35.057Z,43.63
2019-03-22T12:36:04.493Z,42.33
2019-03-22T12:38:33.854Z,42.67
2019-03-22T12:41:03.343Z,40.37
2019-03-22T12:43:34.204Z,43.47
2019-03-22T12:46:03.856Z,42.80
2019-03-22T12:48:33.236Z,44.40
2019-03-22T12:51:02.665Z,43.40
2019-03-22T12:53:32.092Z,44.10
2019-03-22T12:56:01.523Z,47.00
2019-03-22T12:58:31.003Z,44.40
2019-03-22T13:01:00.927Z,43.80
2019-03-22T13:03:30.335Z,44.30
2019-03-22T13:05:59.783Z,44.27
2019-03-22T13:08:29.219Z,43.37
2019-03-22T13:10:58.627Z,45.60
2019-03-22T13:13:28.104Z,41.50
2019-03-22T13:15:58.499Z,44.20
2019-03-22T13:18:27.915Z,44.07
2019-03-22T13:20:58.305Z,45.47
2019-03-22T13:23:27.743Z,43.47
2019-03-22T13:25:58.475Z,43.80
2019-03-22T13:28:27.908Z,45.10
2019-03-22T13:30:58.653Z,43.47
2019-03-22T13:33:28.147Z,43.67
2019-03-22T13:35:57.570Z,44.40
2019-03-22T13:38:27.028Z,43.37
2019-03-22T13:40:57.484Z,45.00
2019-03-22T13:43:26.887Z,43.90
2019-03-22T13:45:56.246Z,45.30
2019-03-22T13:48:25.614Z,44.83
2019-03-22T13:50:55.065Z,45.87
2019-03-22T13:53:25.404Z,47.53
2019-03-22T13:55:54.844Z,47.30
2019-03-22T13:58:25.400Z,44.60
2019-03-22T14:00:55.051Z,45.47
2019-03-22T14:03:25.408Z,45.27
2019-03-22T14:05:54.926Z,44.33
2019-03-22T14:08:24.406Z,45.57
2019-03-22T14:10:53.919Z,46.40
2019-03-22T14:13:23.620Z,44.77
2019-03-22T14:15:53.039Z,45.97
2019-03-22T14:18:22.483Z,45.83
2019-03-22T14:20:51.863Z,47.77
2019-03-22T14:23:21.260Z,48.83
2019-03-22T14:25:50.647Z,48.43
2019-03-22T14:28:20.031Z,46.97
2019-03-22T14:30:49.404Z,47.13
2019-03-22T14:33:18.828Z,45.57
2019-03-22T14:35:48.196Z,44.77
2019-03-22T14:38:17.603Z,46.03
2019-03-22T14:40:47.010Z,47.70
2019-03-22T14:43:16.423Z,45.40
2019-03-22T14:45:45.811Z,45.80
2019-03-22T14:48:15.187Z,46.00
2019-03-22T14:50:44.616Z,47.93
2019-03-22T14:53:14.331Z,43.80
2019-03-22T14:55:44.221Z,46.20
2019-03-22T14:58:13.588Z,45.40
2019-03-22T15:00:42.991Z,44.03
2019-03-22T15:03:25.697Z,43.43
2019-03-22T15:05:55.439Z,48.40
2019-03-22T15:08:24.810Z,45.97
2019-03-22T15:10:54.302Z,45.93
2019-03-22T15:13:28.459Z,44.93
2019-03-22T15:16:23.069Z,44.83
2019-03-22T15:19:20.911Z,47.93
2019-03-22T15:22:08.598Z,43.77
2019-03-22T15:24:56.025Z,45.30
2019-03-22T15:27:42.215Z,47.20
2019-03-22T15:30:38.330Z,43.00
2019-03-22T15:33:16.600Z,45.80
2019-03-22T15:35:59.224Z,44.43
2019-03-22T15:38:48.138Z,46.40
2019-03-22T15:41:17.829Z,48.00
2019-03-22T15:43:47.269Z,46.93
2019-03-22T15:46:16.724Z,44.67
2019-03-22T15:48:46.227Z,47.10
2019-03-22T15:51:15.658Z,45.17
2019-03-22T15:53:45.119Z,46.27
2019-03-22T15:56:14.547Z,46.43
2019-03-22T15:58:43.992Z,44.00
2019-03-22T16:01:13.703Z,45.77
2019-03-22T16:03:44.466Z,44.73
2019-03-22T16:06:14.226Z,46.07
2019-03-22T16:08:43.671Z,47.53
2019-03-22T16:11:13.087Z,47.33
2019-03-22T16:13:53.617Z,48.53
2019-03-22T16:16:23.434Z,47.80
2019-03-22T16:18:52.947Z,46.90
2019-03-22T16:21:22.548Z,47.80
2019-03-22T16:23:52.084Z,47.53
2019-03-22T16:26:21.542Z,48.30
2019-03-22T16:28:50.991Z,47.67
2019-03-22T16:31:20.542Z,47.43
2019-03-22T16:33:54.335Z,48.00
2019-03-22T16:36:21.227Z,47.53
2019-03-22T16:38:50.832Z,48.43
2019-03-22T16:41:20.310Z,48.37
2019-03-22T16:43:49.850Z,49.77
2019-03-22T16:46:19.458Z,48.97
2019-03-22T16:48:49.013Z,48.80
2019-03-22T16:51:18.595Z,48.20
2019-03-22T16:53:48.047Z,47.00
2019-03-22T16:56:17.479Z,46.53
2019-03-22T16:58:47.992Z,48.30
2019-03-22T17:01:17.520Z,47.40
2019-03-22T17:03:46.949Z,49.90
2019-03-22T17:06:16.429Z,50.80
2019-03-22T17:08:45.860Z,50.30
2019-03-22T17:11:15.280Z,51.43
2019-03-22T17:13:44.733Z,48.97
2019-03-22T17:16:14.137Z,49.30
2019-03-22T17:18:44.896Z,48.93
2019-03-22T17:21:14.579Z,47.10
2019-03-22T17:23:46.674Z,49.07
2019-03-22T17:26:16.277Z,47.57
2019-03-22T17:28:45.709Z,45.50
2019-03-22T17:31:15.115Z,45.40
2019-03-22T17:33:44.542Z,46.87
2019-03-22T17:36:13.943Z,47.07
2019-03-22T17:38:43.388Z,47.63
2019-03-22T17:41:12.800Z,48.37
2019-03-22T17:43:42.213Z,50.33
2019-03-22T17:46:11.631Z,46.80
2019-03-22T17:48:41.052Z,46.10
2019-03-22T17:51:10.470Z,45.27
2019-03-22T17:53:39.956Z,45.10
2019-03-22T17:56:09.367Z,45.07
2019-03-22T17:58:38.775Z,45.53
2019-03-22T18:01:08.236Z,47.47
2019-03-22T18:03:37.670Z,46.93
2019-03-22T18:06:07.092Z,47.00
2019-03-22T18:08:37.357Z,48.77
2019-03-22T18:11:06.931Z,45.40
2019-03-22T18:13:36.409Z,45.57
2019-03-22T18:16:05.827Z,48.13
2019-03-22T18:18:35.262Z,53.90
2019-03-22T18:21:04.655Z,51.20
2019-03-22T18:23:35.917Z,50.37
2019-03-22T18:26:05.637Z,52.57
2019-03-22T18:28:35.055Z,62.43
2019-03-22T18:31:04.530Z,52.10
2019-03-22T18:33:33.971Z,50.33
2019-03-22T18:36:03.676Z,49.03
2019-03-22T18:38:33.095Z,51.60
2019-03-22T18:41:02.504Z,50.53
2019-03-22T18:43:31.901Z,48.83
2019-03-22T18:46:01.313Z,48.27
2019-03-22T18:48:30.934Z,46.73
2019-03-22T18:51:00.357Z,44.67
2019-03-22T18:53:29.816Z,44.90
2019-03-22T18:55:59.232Z,48.77
2019-03-22T18:58:28.660Z,44.50
2019-03-22T19:00:58.159Z,46.57
2019-03-22T19:03:27.587Z,47.77
2019-03-22T19:05:56.968Z,46.50
2019-03-22T19:08:26.400Z,46.40
2019-03-22T19:10:55.791Z,45.97
2019-03-22T19:13:30.713Z,44.70
2019-03-22T19:15:56.307Z,44.77
2019-03-22T19:18:25.998Z,45.07
2019-03-22T19:20:55.442Z,44.90
2019-03-22T19:23:24.932Z,47.20
2019-03-22T19:25:54.358Z,46.13
2019-03-22T19:28:24.068Z,45.90
2019-03-22T19:30:53.494Z,46.60
2019-03-22T19:33:22.876Z,44.27
2019-03-22T19:35:52.303Z,45.97
2019-03-22T19:38:21.691Z,48.30
2019-03-22T19:40:51.087Z,45.80
2019-03-22T19:43:20.459Z,48.87
2019-03-22T19:45:49.849Z,45.50
2019-03-22T19:48:19.214Z,45.70
2019-03-22T19:50:48.857Z,46.07
2019-03-22T19:53:18.592Z,47.20
2019-03-22T19:55:49.046Z,48.73
2019-03-22T19:58:18.685Z,49.10
2019-03-22T20:00:48.102Z,47.37
2019-03-22T20:03:17.479Z,46.70
2019-03-22T20:05:47.372Z,49.60
2019-03-22T20:08:16.744Z,46.83
2019-03-22T20:10:46.138Z,46.10
2019-03-22T20:13:15.499Z,49.00
2019-03-22T20:15:44.898Z,46.80
2019-03-22T20:18:14.255Z,48.10
2019-03-22T20:20:43.740Z,47.30
2019-03-22T20:23:13.139Z,52.97
2019-03-22T20:25:42.524Z,48.10
2019-03-22T20:28:11.948Z,50.60
2019-03-22T20:30:41.428Z,48.30
2019-03-22T20:33:10.815Z,49.50
2019-03-22T20:35:40.186Z,48.63
2019-03-22T20:38:09.557Z,49.67
2019-03-22T20:40:38.942Z,51.00
2019-03-22T20:43:08.304Z,51.47
2019-03-22T20:45:37.685Z,49.60
2019-03-22T20:48:07.047Z,50.23
2019-03-22T20:50:36.786Z,47.13
2019-03-22T20:53:06.147Z,49.50
2019-03-22T20:55:35.543Z,49.07
2019-03-22T20:58:04.962Z,51.87
2019-03-22T21:00:34.416Z,48.83
2019-03-22T21:03:04.190Z,48.37
2019-03-22T21:05:33.597Z,49.80
2019-03-22T21:08:03.006Z,51.40
2019-03-22T21:10:32.715Z,50.53
2019-03-22T21:13:02.118Z,51.03
2019-03-22T21:15:31.568Z,47.83
2019-03-22T21:18:00.931Z,51.57
2019-03-22T21:20:30.317Z,54.53
2019-03-22T21:22:59.713Z,51.37
2019-03-22T21:25:29.102Z,50.30
2019-03-22T21:27:58.471Z,52.10
2019-03-22T21:30:27.947Z,51.10
2019-03-22T21:32:57.355Z,51.90
2019-03-22T21:35:36.679Z,54.27
2019-03-22T21:37:57.919Z,51.37
2019-03-22T21:40:27.347Z,51.30
2019-03-22T21:42:56.758Z,52.17
2019-03-22T21:45:26.165Z,52.53
2019-03-22T21:47:55.552Z,52.40
2019-03-22T21:50:24.929Z,50.67
2019-03-22T21:52:54.315Z,49.90
2019-03-22T21:55:23.706Z,51.00
2019-03-22T21:57:53.076Z,52.03
2019-03-22T22:00:22.831Z,52.50
2019-03-22T22:02:52.227Z,51.27
2019-03-22T22:05:21.975Z,50.60
2019-03-22T22:07:51.611Z,52.70
2019-03-22T22:10:21.017Z,50.50
2019-03-22T22:12:50.449Z,52.00
2019-03-22T22:15:19.843Z,53.00
2019-03-22T22:17:49.253Z,53.27
2019-03-22T22:20:28.394Z,51.30
2019-03-22T22:22:49.755Z,50.80
2019-03-22T22:25:20.528Z,53.57
2019-03-22T22:27:50.006Z,52.63
2019-03-22T22:30:19.468Z,52.30
2019-03-22T22:32:48.854Z,54.37
2019-03-22T22:35:18.266Z,55.13
2019-03-22T22:37:47.646Z,55.00
2019-03-22T22:40:17.041Z,52.80
2019-03-22T22:42:46.441Z,51.17
2019-03-22T22:45:15.929Z,53.40
2019-03-22T22:47:45.385Z,55.50
2019-03-22T22:50:14.800Z,52.87
2019-03-22T22:52:44.203Z,51.97
2019-03-22T22:55:14.402Z,54.60
2019-03-22T22:57:43.823Z,52.77
2019-03-22T23:00:14.059Z,53.43
2019-03-22T23:02:44.300Z,50.20
2019-03-22T23:05:13.792Z,53.67
2019-03-22T23:07:43.216Z,56.90
2019-03-22T23:10:12.901Z,53.60
2019-03-22T23:12:42.481Z,54.70
2019-03-22T23:15:12.047Z,52.80
2019-03-22T23:17:41.439Z,52.07
2019-03-22T23:20:11.019Z,52.93
2019-03-22T23:22:40.424Z,53.53
2019-03-22T23:25:09.981Z,53.07
2019-03-22T23:27:39.359Z,55.47
2019-03-22T23:30:08.905Z,52.63
2019-03-22T23:32:38.363Z,54.90
2019-03-22T23:35:07.921Z,54.13
2019-03-22T23:37:37.648Z,54.80
2019-03-22T23:40:07.442Z,54.37
2019-03-22T23:42:36.936Z,56.07
2019-03-22T23:45:06.581Z,52.97
2019-03-22T23:47:36.975Z,52.50
2019-03-22T23:50:07.324Z,50.87
2019-03-22T23:52:36.945Z,52.90
2019-03-22T23:55:06.583Z,52.97
2019-03-22T23:57:36.056Z,53.40
